createdAt,value
2023-10-31T05:31:29.553Z,2.70
2023-10-31T05:35:32.727Z,2.83
2023-10-31T05:39:38.044Z,2.97
2023-10-31T05:43:43.197Z,2.65
2023-10-31T05:47:46.008Z,2.63
2023-10-31T05:51:55.219Z,2.75
2023-10-31T05:55:58.003Z,2.45
2023-10-31T06:00:01.131Z,1.90
2023-10-31T06:04:04.375Z,3.00
2023-10-31T06:08:07.464Z,2.53
2023-10-31T06:12:10.382Z,2.17
2023-10-31T06:16:13.472Z,2.30
2023-10-31T06:20:16.277Z,2.35
2023-10-31T06:24:19.414Z,1.98
2023-10-31T06:28:23.571Z,2.13
2023-10-31T06:32:27.375Z,2.35
2023-10-31T06:36:30.128Z,1.70
2023-10-31T06:40:33.246Z,2.03
2023-10-31T06:44:36.017Z,2.10
2023-10-31T06:48:39.091Z,2.12
2023-10-31T06:52:42.785Z,1.87
2023-10-31T06:56:45.843Z,2.27
2023-10-31T07:00:49.192Z,2.35
2023-10-31T07:04:52.275Z,2.00
2023-10-31T07:08:55.462Z,2.07
2023-10-31T07:12:59.918Z,1.90
2023-10-31T07:17:02.629Z,2.30
2023-10-31T07:21:06.035Z,1.80
2023-10-31T07:25:09.262Z,2.03
2023-10-31T07:29:12.908Z,2.00
2023-10-31T07:33:15.740Z,2.08
2023-10-31T07:37:18.867Z,1.70
2023-10-31T07:41:21.713Z,1.83
2023-10-31T07:45:24.770Z,1.98
2023-10-31T07:49:27.495Z,2.20
2023-10-31T07:53:31.865Z,1.80
2023-10-31T07:57:34.945Z,1.87
2023-10-31T08:01:38.604Z,1.90
2023-10-31T08:05:41.785Z,1.65
2023-10-31T08:09:44.557Z,1.83
2023-10-31T08:13:47.931Z,1.60
2023-10-31T08:17:51.127Z,1.27
2023-10-31T08:21:56.441Z,1.65
2023-10-31T08:25:59.780Z,1.80
2023-10-31T08:30:03.910Z,1.60
2023-10-31T08:34:06.828Z,1.87
2023-10-31T08:38:18.302Z,1.62
2023-10-31T08:42:26.917Z,1.90
2023-10-31T08:46:29.905Z,1.75
2023-10-31T08:50:32.633Z,1.62
2023-10-31T08:54:35.711Z,1.70
2023-10-31T08:58:38.472Z,1.20
2023-10-31T09:02:41.484Z,1.35
2023-10-31T09:06:44.236Z,1.55
2023-10-31T09:10:48.025Z,1.50
2023-10-31T09:14:50.741Z,1.37
2023-10-31T09:18:53.779Z,1.52
2023-10-31T09:22:56.601Z,1.30
2023-10-31T09:26:59.944Z,1.58
2023-10-31T09:31:03.652Z,1.40
2023-10-31T09:35:09.707Z,1.30
2023-10-31T09:39:12.578Z,1.40
2023-10-31T09:43:15.661Z,1.45
2023-10-31T09:47:18.805Z,1.15
2023-10-31T09:51:22.837Z,1.57
2023-10-31T09:55:25.566Z,1.45
2023-10-31T09:59:28.773Z,1.33
2023-10-31T10:03:31.922Z,1.50
2023-10-31T10:07:36.890Z,1.62
2023-10-31T10:11:40.532Z,1.12
2023-10-31T10:15:50.557Z,1.60
2023-10-31T10:20:11.522Z,1.33
2023-10-31T10:24:15.894Z,1.40
2023-10-31T10:28:20.683Z,1.45
2023-10-31T10:32:23.830Z,1.63
2023-10-31T10:36:26.896Z,1.30
2023-10-31T10:40:30.158Z,1.40
2023-10-31T10:44:35.268Z,1.50
2023-10-31T10:48:41.172Z,1.48
2023-10-31T10:52:50.397Z,1.60
2023-10-31T10:57:01.296Z,1.30
2023-10-31T11:01:05.823Z,1.07
2023-10-31T11:05:09.827Z,1.40
2023-10-31T11:09:14.544Z,1.58
2023-10-31T11:13:17.865Z,1.37
2023-10-31T11:17:30.389Z,1.20
2023-10-31T11:21:35.883Z,1.20
2023-10-31T11:25:45.345Z,1.40
2023-10-31T11:29:48.602Z,1.60
2023-10-31T11:33:53.109Z,1.10
2023-10-31T11:38:19.391Z,1.50
2023-10-31T11:42:22.143Z,1.50
2023-10-31T11:46:27.328Z,1.23
2023-10-31T11:50:36.567Z,1.75
2023-10-31T11:54:57.413Z,2.10
2023-10-31T11:59:04.716Z,1.50
2023-10-31T12:03:07.880Z,2.05
2023-10-31T12:07:10.994Z,1.80
2023-10-31T12:11:21.961Z,1.20
2023-10-31T12:15:27.304Z,1.40
2023-10-31T12:19:30.844Z,1.45
2023-10-31T12:23:34.159Z,1.30
2023-10-31T12:27:47.613Z,1.50
2023-10-31T12:31:53.830Z,1.60
2023-10-31T12:36:01.466Z,1.40
2023-10-31T12:40:05.555Z,1.55
2023-10-31T12:44:11.899Z,1.52
2023-10-31T12:48:15.105Z,2.77
2023-10-31T12:52:17.903Z,1.77
2023-10-31T12:56:42.565Z,3.90
2023-10-31T13:00:47.256Z,4.40
2023-10-31T13:04:50.602Z,4.10
2023-10-31T13:08:53.415Z,7.57
2023-10-31T13:12:57.419Z,5.30
2023-10-31T13:17:00.752Z,6.33
2023-10-31T13:21:04.043Z,5.85
2023-10-31T13:25:12.237Z,6.25
2023-10-31T13:29:15.244Z,7.57
2023-10-31T13:33:17.994Z,4.37
2023-10-31T13:37:22.230Z,9.98
2023-10-31T13:41:25.263Z,10.85
2023-10-31T13:45:28.300Z,8.63
2023-10-31T13:49:31.004Z,4.07
2023-10-31T13:53:34.066Z,3.58
2023-10-31T13:57:37.241Z,5.07
2023-10-31T14:01:41.315Z,5.18
2023-10-31T14:05:44.825Z,5.05
2023-10-31T14:09:49.365Z,5.87
2023-10-31T14:13:53.366Z,4.10
2023-10-31T14:17:56.184Z,3.75
2023-10-31T14:21:59.228Z,4.30
2023-10-31T14:26:02.157Z,2.60
2023-10-31T14:30:05.803Z,3.97
2023-10-31T14:34:08.678Z,4.50
2023-10-31T14:38:11.978Z,3.90
2023-10-31T14:42:15.198Z,20.88
2023-10-31T14:46:18.512Z,8.68
2023-10-31T14:50:22.167Z,4.43
2023-10-31T14:54:26.567Z,4.82
2023-10-31T14:58:29.363Z,5.50
2023-10-31T15:02:32.530Z,7.97
2023-10-31T15:06:35.431Z,9.50
2023-10-31T15:10:38.462Z,13.80
2023-10-31T15:14:41.239Z,7.55
2023-10-31T15:18:45.629Z,4.90
2023-10-31T15:22:50.277Z,4.03
